sensor_id;sensor_type;location;lat;lon;timestamp;P1;durP1;ratioP1;P2;durP2;ratioP2
56319;SDS011;42226;42.382;23.748;2023-07-28T00:00:03;5.47;;;4.97;;
56319;SDS011;42226;42.382;23.748;2023-07-28T00:02:30;4.90;;;4.50;;
56319;SDS011;42226;42.382;23.748;2023-07-28T00:04:58;4.38;;;4.07;;
56319;SDS011;42226;42.382;23.748;2023-07-28T00:07:24;4.72;;;4.43;;
56319;SDS011;42226;42.382;23.748;2023-07-28T00:09:52;4.57;;;4.28;;
56319;SDS011;42226;42.382;23.748;2023-07-28T00:12:20;4.55;;;4.15;;
56319;SDS011;42226;42.382;23.748;2023-07-28T00:14:48;4.50;;;4.20;;
56319;SDS011;42226;42.382;23.748;2023-07-28T00:17:16;4.55;;;4.25;;
56319;SDS011;42226;42.382;23.748;2023-07-28T00:19:43;4.38;;;4.07;;
56319;SDS011;42226;42.382;23.748;2023-07-28T00:22:11;4.53;;;4.22;;
56319;SDS011;42226;42.382;23.748;2023-07-28T00:24:38;5.35;;;4.57;;
56319;SDS011;42226;42.382;23.748;2023-07-28T00:27:06;4.60;;;4.30;;
56319;SDS011;42226;42.382;23.748;2023-07-28T00:29:33;6.05;;;4.50;;
56319;SDS011;42226;42.382;23.748;2023-07-28T00:32:00;4.55;;;4.25;;
56319;SDS011;42226;42.382;23.748;2023-07-28T00:34:27;4.68;;;4.38;;
56319;SDS011;42226;42.382;23.748;2023-07-28T00:36:55;4.25;;;3.95;;
56319;SDS011;42226;42.382;23.748;2023-07-28T00:39:22;4.68;;;4.30;;
56319;SDS011;42226;42.382;23.748;2023-07-28T00:41:50;5.05;;;4.60;;
56319;SDS011;42226;42.382;23.748;2023-07-28T00:44:16;4.55;;;4.25;;
56319;SDS011;42226;42.382;23.748;2023-07-28T00:46:44;4.70;;;4.40;;
56319;SDS011;42226;42.382;23.748;2023-07-28T00:49:12;4.32;;;4.10;;
56319;SDS011;42226;42.382;23.748;2023-07-28T00:51:39;4.88;;;4.50;;
56319;SDS011;42226;42.382;23.748;2023-07-28T00:54:07;4.35;;;4.05;;
56319;SDS011;42226;42.382;23.748;2023-07-28T00:56:34;4.63;;;4.32;;
56319;SDS011;42226;42.382;23.748;2023-07-28T00:59:02;4.68;;;4.38;;
56319;SDS011;42226;42.382;23.748;2023-07-28T01:01:28;4.30;;;4.00;;
56319;SDS011;42226;42.382;23.748;2023-07-28T01:03:56;4.32;;;3.92;;
56319;SDS011;42226;42.382;23.748;2023-07-28T01:06:31;4.85;;;4.45;;
56319;SDS011;42226;42.382;23.748;2023-07-28T01:09:43;4.25;;;3.95;;
56319;SDS011;42226;42.382;23.748;2023-07-28T01:12:38;4.47;;;4.18;;
56319;SDS011;42226;42.382;23.748;2023-07-28T01:15:06;4.10;;;3.80;;
56319;SDS011;42226;42.382;23.748;2023-07-28T01:17:33;3.80;;;3.50;;
56319;SDS011;42226;42.382;23.748;2023-07-28T01:20:01;4.05;;;3.63;;
56319;SDS011;42226;42.382;23.748;2023-07-28T01:28:00;4.50;;;4.10;;
56319;SDS011;42226;42.382;23.748;2023-07-28T01:30:28;4.50;;;4.10;;
56319;SDS011;42226;42.382;23.748;2023-07-28T01:32:57;3.90;;;3.70;;
56319;SDS011;42226;42.382;23.748;2023-07-28T01:35:25;4.50;;;4.20;;
56319;SDS011;42226;42.382;23.748;2023-07-28T01:37:53;4.47;;;4.18;;
56319;SDS011;42226;42.382;23.748;2023-07-28T01:40:21;3.83;;;3.53;;
56319;SDS011;42226;42.382;23.748;2023-07-28T01:42:49;4.30;;;3.90;;
56319;SDS011;42226;42.382;23.748;2023-07-28T01:45:16;4.63;;;3.72;;
56319;SDS011;42226;42.382;23.748;2023-07-28T01:47:42;4.47;;;4.18;;
56319;SDS011;42226;42.382;23.748;2023-07-28T01:50:10;4.57;;;4.28;;
56319;SDS011;42226;42.382;23.748;2023-07-28T01:52:37;4.30;;;4.10;;
56319;SDS011;42226;42.382;23.748;2023-07-28T01:55:04;4.22;;;3.92;;
56319;SDS011;42226;42.382;23.748;2023-07-28T01:57:35;4.28;;;3.97;;
56319;SDS011;42226;42.382;23.748;2023-07-28T02:00:06;4.85;;;4.55;;
56319;SDS011;42226;42.382;23.748;2023-07-28T02:02:33;4.50;;;4.20;;
56319;SDS011;42226;42.382;23.748;2023-07-28T02:05:01;4.30;;;4.00;;
56319;SDS011;42226;42.382;23.748;2023-07-28T02:07:29;4.60;;;4.30;;
56319;SDS011;42226;42.382;23.748;2023-07-28T02:09:56;4.15;;;3.85;;
56319;SDS011;42226;42.382;23.748;2023-07-28T02:12:23;4.50;;;4.20;;
56319;SDS011;42226;42.382;23.748;2023-07-28T02:14:50;4.32;;;3.92;;
56319;SDS011;42226;42.382;23.748;2023-07-28T02:17:19;4.25;;;3.95;;
56319;SDS011;42226;42.382;23.748;2023-07-28T02:19:46;4.90;;;4.50;;
56319;SDS011;42226;42.382;23.748;2023-07-28T02:22:13;4.70;;;4.18;;
56319;SDS011;42226;42.382;23.748;2023-07-28T02:24:40;3.92;;;3.63;;
56319;SDS011;42226;42.382;23.748;2023-07-28T02:27:07;4.88;;;4.57;;
56319;SDS011;42226;42.382;23.748;2023-07-28T02:29:35;4.57;;;4.28;;
56319;SDS011;42226;42.382;23.748;2023-07-28T02:32:02;4.28;;;3.97;;
56319;SDS011;42226;42.382;23.748;2023-07-28T02:34:31;4.80;;;4.40;;
56319;SDS011;42226;42.382;23.748;2023-07-28T02:36:59;4.30;;;4.10;;
56319;SDS011;42226;42.382;23.748;2023-07-28T02:39:26;4.93;;;4.53;;
56319;SDS011;42226;42.382;23.748;2023-07-28T02:41:53;4.63;;;4.22;;
56319;SDS011;42226;42.382;23.748;2023-07-28T02:44:20;5.30;;;4.80;;
56319;SDS011;42226;42.382;23.748;2023-07-28T02:46:46;5.13;;;4.70;;
56319;SDS011;42226;42.382;23.748;2023-07-28T02:49:14;5.00;;;4.68;;
56319;SDS011;42226;42.382;23.748;2023-07-28T02:51:41;4.50;;;4.20;;
56319;SDS011;42226;42.382;23.748;2023-07-28T02:54:09;4.93;;;4.57;;
56319;SDS011;42226;42.382;23.748;2023-07-28T02:56:36;5.13;;;4.80;;
56319;SDS011;42226;42.382;23.748;2023-07-28T02:59:04;5.25;;;4.95;;
56319;SDS011;42226;42.382;23.748;2023-07-28T03:01:32;4.80;;;4.50;;
56319;SDS011;42226;42.382;23.748;2023-07-28T03:04:00;6.57;;;4.78;;
56319;SDS011;42226;42.382;23.748;2023-07-28T03:06:29;5.22;;;4.93;;
56319;SDS011;42226;42.382;23.748;2023-07-28T03:08:55;5.18;;;4.78;;
56319;SDS011;42226;42.382;23.748;2023-07-28T03:11:25;5.45;;;4.95;;
56319;SDS011;42226;42.382;23.748;2023-07-28T03:13:52;4.68;;;4.38;;
56319;SDS011;42226;42.382;23.748;2023-07-28T03:16:20;4.97;;;4.65;;
56319;SDS011;42226;42.382;23.748;2023-07-28T03:18:46;4.85;;;4.47;;
56319;SDS011;42226;42.382;23.748;2023-07-28T03:21:14;4.90;;;4.50;;
56319;SDS011;42226;42.382;23.748;2023-07-28T03:23:41;4.78;;;4.05;;
56319;SDS011;42226;42.382;23.748;2023-07-28T03:26:09;4.90;;;4.00;;
56319;SDS011;42226;42.382;23.748;2023-07-28T03:28:36;5.15;;;4.75;;
56319;SDS011;42226;42.382;23.748;2023-07-28T03:31:03;5.50;;;5.03;;
56319;SDS011;42226;42.382;23.748;2023-07-28T03:33:31;5.05;;;4.75;;
56319;SDS011;42226;42.382;23.748;2023-07-28T03:35:58;5.40;;;5.00;;
56319;SDS011;42226;42.382;23.748;2023-07-28T03:38:25;5.32;;;4.93;;
56319;SDS011;42226;42.382;23.748;2023-07-28T03:40:52;5.80;;;5.40;;
56319;SDS011;42226;42.382;23.748;2023-07-28T03:43:20;5.63;;;5.10;;
56319;SDS011;42226;42.382;23.748;2023-07-28T03:45:48;5.15;;;4.85;;
56319;SDS011;42226;42.382;23.748;2023-07-28T03:48:15;5.30;;;5.00;;
56319;SDS011;42226;42.382;23.748;2023-07-28T03:50:42;5.45;;;5.05;;
56319;SDS011;42226;42.382;23.748;2023-07-28T03:53:09;5.70;;;5.30;;
56319;SDS011;42226;42.382;23.748;2023-07-28T03:55:38;5.07;;;4.75;;
56319;SDS011;42226;42.382;23.748;2023-07-28T03:58:04;5.72;;;5.32;;
56319;SDS011;42226;42.382;23.748;2023-07-28T04:00:32;5.22;;;4.82;;
56319;SDS011;42226;42.382;23.748;2023-07-28T04:02:59;5.50;;;5.20;;
56319;SDS011;42226;42.382;23.748;2023-07-28T04:05:27;5.65;;;5.30;;
56319;SDS011;42226;42.382;23.748;2023-07-28T04:07:55;5.63;;;5.20;;
56319;SDS011;42226;42.382;23.748;2023-07-28T04:10:22;5.70;;;5.30;;
56319;SDS011;42226;42.382;23.748;2023-07-28T04:12:50;5.40;;;5.00;;
56319;SDS011;42226;42.382;23.748;2023-07-28T04:15:17;5.82;;;5.32;;
56319;SDS011;42226;42.382;23.748;2023-07-28T04:17:44;5.78;;;5.18;;
56319;SDS011;42226;42.382;23.748;2023-07-28T04:20:13;5.95;;;5.47;;
56319;SDS011;42226;42.382;23.748;2023-07-28T04:22:41;5.88;;;5.47;;
56319;SDS011;42226;42.382;23.748;2023-07-28T04:25:07;5.78;;;5.38;;
56319;SDS011;42226;42.382;23.748;2023-07-28T04:27:35;5.43;;;5.03;;
56319;SDS011;42226;42.382;23.748;2023-07-28T04:30:02;5.53;;;5.13;;
56319;SDS011;42226;42.382;23.748;2023-07-28T04:32:31;5.30;;;4.90;;
56319;SDS011;42226;42.382;23.748;2023-07-28T04:34:58;5.28;;;4.88;;
56319;SDS011;42226;42.382;23.748;2023-07-28T04:37:26;5.05;;;4.65;;
56319;SDS011;42226;42.382;23.748;2023-07-28T04:39:53;7.78;;;4.82;;
56319;SDS011;42226;42.382;23.748;2023-07-28T04:42:20;4.72;;;4.43;;
56319;SDS011;42226;42.382;23.748;2023-07-28T04:44:48;5.13;;;4.75;;
56319;SDS011;42226;42.382;23.748;2023-07-28T04:47:15;4.90;;;4.50;;
56319;SDS011;42226;42.382;23.748;2023-07-28T04:49:42;4.70;;;4.32;;
56319;SDS011;42226;42.382;23.748;2023-07-28T04:52:08;4.80;;;4.50;;
56319;SDS011;42226;42.382;23.748;2023-07-28T04:54:37;4.75;;;4.35;;
56319;SDS011;42226;42.382;23.748;2023-07-28T04:57:05;4.60;;;4.30;;
56319;SDS011;42226;42.382;23.748;2023-07-28T04:59:32;4.68;;;4.38;;
56319;SDS011;42226;42.382;23.748;2023-07-28T05:02:00;4.82;;;4.32;;
56319;SDS011;42226;42.382;23.748;2023-07-28T05:04:28;5.00;;;4.30;;
56319;SDS011;42226;42.382;23.748;2023-07-28T05:06:55;4.85;;;4.43;;
56319;SDS011;42226;42.382;23.748;2023-07-28T05:09:22;4.80;;;4.15;;
56319;SDS011;42226;42.382;23.748;2023-07-28T05:11:49;4.43;;;4.13;;
56319;SDS011;42226;42.382;23.748;2023-07-28T05:14:16;4.57;;;4.28;;
56319;SDS011;42226;42.382;23.748;2023-07-28T05:16:43;6.35;;;4.47;;
56319;SDS011;42226;42.382;23.748;2023-07-28T05:19:11;4.38;;;4.07;;
56319;SDS011;42226;42.382;23.748;2023-07-28T05:21:37;4.63;;;4.32;;
56319;SDS011;42226;42.382;23.748;2023-07-28T05:24:05;4.00;;;3.70;;
56319;SDS011;42226;42.382;23.748;2023-07-28T05:26:32;4.90;;;4.38;;
56319;SDS011;42226;42.382;23.748;2023-07-28T05:28:59;4.35;;;4.05;;
56319;SDS011;42226;42.382;23.748;2023-07-28T05:31:25;3.92;;;3.72;;
56319;SDS011;42226;42.382;23.748;2023-07-28T05:33:53;4.03;;;3.72;;
56319;SDS011;42226;42.382;23.748;2023-07-28T05:36:20;4.43;;;3.92;;
56319;SDS011;42226;42.382;23.748;2023-07-28T05:38:47;4.75;;;4.45;;
56319;SDS011;42226;42.382;23.748;2023-07-28T05:41:15;4.57;;;4.18;;
56319;SDS011;42226;42.382;23.748;2023-07-28T05:43:43;4.90;;;4.15;;
56319;SDS011;42226;42.382;23.748;2023-07-28T05:46:10;4.75;;;4.45;;
56319;SDS011;42226;42.382;23.748;2023-07-28T05:48:37;4.28;;;3.90;;
56319;SDS011;42226;42.382;23.748;2023-07-28T05:51:05;4.68;;;4.32;;
56319;SDS011;42226;42.382;23.748;2023-07-28T05:53:32;4.55;;;4.18;;
56319;SDS011;42226;42.382;23.748;2023-07-28T05:56:00;3.88;;;3.67;;
56319;SDS011;42226;42.382;23.748;2023-07-28T05:58:26;4.32;;;4.03;;
56319;SDS011;42226;42.382;23.748;2023-07-28T06:00:55;3.88;;;3.67;;
56319;SDS011;42226;42.382;23.748;2023-07-28T06:03:30;4.05;;;3.72;;
56319;SDS011;42226;42.382;23.748;2023-07-28T06:05:58;4.40;;;4.00;;
56319;SDS011;42226;42.382;23.748;2023-07-28T06:08:24;3.83;;;3.53;;
56319;SDS011;42226;42.382;23.748;2023-07-28T06:10:52;4.03;;;3.63;;
56319;SDS011;42226;42.382;23.748;2023-07-28T06:13:20;3.88;;;3.58;;
56319;SDS011;42226;42.382;23.748;2023-07-28T06:15:47;3.97;;;3.78;;
56319;SDS011;42226;42.382;23.748;2023-07-28T06:18:15;4.45;;;4.05;;
56319;SDS011;42226;42.382;23.748;2023-07-28T06:20:45;4.65;;;4.25;;
56319;SDS011;42226;42.382;23.748;2023-07-28T06:23:12;3.83;;;3.53;;
56319;SDS011;42226;42.382;23.748;2023-07-28T06:25:39;4.13;;;3.83;;
56319;SDS011;42226;42.382;23.748;2023-07-28T06:28:12;4.40;;;4.00;;
56319;SDS011;42226;42.382;23.748;2023-07-28T07:24:09;6.32;;;3.58;;
56319;SDS011;42226;42.382;23.748;2023-07-28T07:58:13;3.70;;;3.40;;
56319;SDS011;42226;42.382;23.748;2023-07-28T08:10:09;3.50;;;3.20;;
56319;SDS011;42226;42.382;23.748;2023-07-28T08:12:37;4.60;;;3.57;;
56319;SDS011;42226;42.382;23.748;2023-07-28T08:17:55;3.60;;;3.30;;
56319;SDS011;42226;42.382;23.748;2023-07-28T08:20:22;3.25;;;3.05;;
56319;SDS011;42226;42.382;23.748;2023-07-28T08:23:00;3.25;;;3.05;;
56319;SDS011;42226;42.382;23.748;2023-07-28T08:25:29;3.42;;;3.22;;
56319;SDS011;42226;42.382;23.748;2023-07-28T08:28:14;4.10;;;3.20;;
56319;SDS011;42226;42.382;23.748;2023-07-28T08:30:42;3.95;;;3.65;;
56319;SDS011;42226;42.382;23.748;2023-07-28T08:36:12;4.03;;;3.25;;
56319;SDS011;42226;42.382;23.748;2023-07-28T08:42:22;4.22;;;3.10;;
56319;SDS011;42226;42.382;23.748;2023-07-28T08:44:50;4.22;;;3.53;;
56319;SDS011;42226;42.382;23.748;2023-07-28T08:47:18;4.30;;;3.13;;
56319;SDS011;42226;42.382;23.748;2023-07-28T08:49:46;3.60;;;3.30;;
56319;SDS011;42226;42.382;23.748;2023-07-28T08:52:15;5.88;;;3.42;;
56319;SDS011;42226;42.382;23.748;2023-07-28T08:57:50;3.30;;;3.10;;
56319;SDS011;42226;42.382;23.748;2023-07-28T09:00:18;3.30;;;3.10;;
56319;SDS011;42226;42.382;23.748;2023-07-28T09:02:48;4.72;;;3.10;;
56319;SDS011;42226;42.382;23.748;2023-07-28T09:05:21;4.78;;;3.30;;
56319;SDS011;42226;42.382;23.748;2023-07-28T09:07:51;3.25;;;2.95;;
56319;SDS011;42226;42.382;23.748;2023-07-28T09:10:20;3.70;;;3.40;;
56319;SDS011;42226;42.382;23.748;2023-07-28T09:21:21;3.33;;;3.05;;
56319;SDS011;42226;42.382;23.748;2023-07-28T09:23:49;3.78;;;3.47;;
56319;SDS011;42226;42.382;23.748;2023-07-28T09:29:27;3.25;;;2.70;;
56319;SDS011;42226;42.382;23.748;2023-07-28T09:32:04;3.30;;;3.03;;
56319;SDS011;42226;42.382;23.748;2023-07-28T09:35:09;3.33;;;2.78;;
56319;SDS011;42226;42.382;23.748;2023-07-28T12:38:01;3.03;;;2.83;;
56319;SDS011;42226;42.382;23.748;2023-07-28T12:40:30;3.40;;;2.90;;
56319;SDS011;42226;42.382;23.748;2023-07-28T13:06:40;3.75;;;3.00;;
56319;SDS011;42226;42.382;23.748;2023-07-28T13:09:10;2.90;;;2.70;;
56319;SDS011;42226;42.382;23.748;2023-07-28T13:11:38;3.13;;;2.92;;
56319;SDS011;42226;42.382;23.748;2023-07-28T17:13:37;4.53;;;3.75;;
56319;SDS011;42226;42.382;23.748;2023-07-28T17:31:03;4.70;;;3.95;;
56319;SDS011;42226;42.382;23.748;2023-07-28T17:33:30;4.75;;;3.90;;
56319;SDS011;42226;42.382;23.748;2023-07-28T17:35:57;4.30;;;4.00;;
56319;SDS011;42226;42.382;23.748;2023-07-28T17:38:26;5.60;;;4.20;;
56319;SDS011;42226;42.382;23.748;2023-07-28T17:40:56;4.35;;;3.75;;
56319;SDS011;42226;42.382;23.748;2023-07-28T17:43:24;4.53;;;4.15;;
56319;SDS011;42226;42.382;23.748;2023-07-28T17:45:51;7.00;;;4.07;;
56319;SDS011;42226;42.382;23.748;2023-07-28T17:48:18;5.03;;;4.18;;
56319;SDS011;42226;42.382;23.748;2023-07-28T17:50:46;4.60;;;4.20;;
56319;SDS011;42226;42.382;23.748;2023-07-28T17:53:13;6.00;;;4.40;;
56319;SDS011;42226;42.382;23.748;2023-07-28T17:55:41;4.60;;;4.20;;
56319;SDS011;42226;42.382;23.748;2023-07-28T17:58:09;17.83;;;5.13;;
56319;SDS011;42226;42.382;23.748;2023-07-28T18:00:36;4.90;;;4.50;;
56319;SDS011;42226;42.382;23.748;2023-07-28T18:03:03;8.63;;;4.30;;
56319;SDS011;42226;42.382;23.748;2023-07-28T18:05:32;8.57;;;4.47;;
56319;SDS011;42226;42.382;23.748;2023-07-28T18:08:03;5.43;;;4.60;;
56319;SDS011;42226;42.382;23.748;2023-07-28T18:10:39;6.10;;;4.30;;
56319;SDS011;42226;42.382;23.748;2023-07-28T18:13:07;32.22;;;5.65;;
56319;SDS011;42226;42.382;23.748;2023-07-28T18:15:34;7.75;;;4.50;;
56319;SDS011;42226;42.382;23.748;2023-07-28T18:18:01;9.23;;;4.75;;
56319;SDS011;42226;42.382;23.748;2023-07-28T18:20:28;12.60;;;5.45;;
56319;SDS011;42226;42.382;23.748;2023-07-28T18:22:55;12.60;;;5.43;;
56319;SDS011;42226;42.382;23.748;2023-07-28T18:25:22;4.95;;;4.18;;
56319;SDS011;42226;42.382;23.748;2023-07-28T18:27:49;3.70;;;3.40;;
56319;SDS011;42226;42.382;23.748;2023-07-28T18:30:16;4.22;;;3.55;;
56319;SDS011;42226;42.382;23.748;2023-07-28T18:32:43;3.75;;;3.45;;
56319;SDS011;42226;42.382;23.748;2023-07-28T18:35:09;3.88;;;3.58;;
56319;SDS011;42226;42.382;23.748;2023-07-28T18:37:36;3.72;;;3.42;;
56319;SDS011;42226;42.382;23.748;2023-07-28T18:40:03;3.88;;;3.58;;
56319;SDS011;42226;42.382;23.748;2023-07-28T18:42:30;3.80;;;3.50;;
56319;SDS011;42226;42.382;23.748;2023-07-28T18:44:57;3.80;;;3.50;;
56319;SDS011;42226;42.382;23.748;2023-07-28T18:47:24;3.53;;;3.33;;
56319;SDS011;42226;42.382;23.748;2023-07-28T18:49:51;6.85;;;3.92;;
56319;SDS011;42226;42.382;23.748;2023-07-28T18:52:17;4.10;;;3.53;;
56319;SDS011;42226;42.382;23.748;2023-07-28T18:54:44;3.58;;;3.38;;
56319;SDS011;42226;42.382;23.748;2023-07-28T18:57:10;4.80;;;3.55;;
56319;SDS011;42226;42.382;23.748;2023-07-28T18:59:37;4.10;;;3.40;;
56319;SDS011;42226;42.382;23.748;2023-07-28T19:02:03;6.65;;;3.40;;
56319;SDS011;42226;42.382;23.748;2023-07-28T19:04:30;4.30;;;3.90;;
56319;SDS011;42226;42.382;23.748;2023-07-28T19:06:57;3.85;;;3.50;;
56319;SDS011;42226;42.382;23.748;2023-07-28T19:09:23;3.75;;;3.45;;
56319;SDS011;42226;42.382;23.748;2023-07-28T19:11:50;4.35;;;3.55;;
56319;SDS011;42226;42.382;23.748;2023-07-28T19:14:19;4.20;;;3.63;;
56319;SDS011;42226;42.382;23.748;2023-07-28T19:16:47;3.92;;;3.53;;
56319;SDS011;42226;42.382;23.748;2023-07-28T19:19:14;3.90;;;3.60;;
56319;SDS011;42226;42.382;23.748;2023-07-28T19:21:42;4.50;;;3.85;;
56319;SDS011;42226;42.382;23.748;2023-07-28T19:24:11;3.75;;;3.40;;
56319;SDS011;42226;42.382;23.748;2023-07-28T19:26:38;3.50;;;3.30;;
56319;SDS011;42226;42.382;23.748;2023-07-28T19:29:04;3.55;;;3.25;;
56319;SDS011;42226;42.382;23.748;2023-07-28T19:31:32;4.38;;;3.65;;
56319;SDS011;42226;42.382;23.748;2023-07-28T19:33:59;3.90;;;3.30;;
56319;SDS011;42226;42.382;23.748;2023-07-28T19:36:26;3.60;;;3.00;;
56319;SDS011;42226;42.382;23.748;2023-07-28T19:38:54;3.97;;;3.67;;
56319;SDS011;42226;42.382;23.748;2023-07-28T19:41:21;3.20;;;2.80;;
56319;SDS011;42226;42.382;23.748;2023-07-28T19:43:50;3.65;;;3.35;;
56319;SDS011;42226;42.382;23.748;2023-07-28T19:46:16;3.45;;;3.15;;
56319;SDS011;42226;42.382;23.748;2023-07-28T19:48:43;4.32;;;3.92;;
56319;SDS011;42226;42.382;23.748;2023-07-28T19:51:09;3.58;;;3.30;;
56319;SDS011;42226;42.382;23.748;2023-07-28T19:53:36;4.15;;;3.85;;
56319;SDS011;42226;42.382;23.748;2023-07-28T19:56:03;4.25;;;3.92;;
56319;SDS011;42226;42.382;23.748;2023-07-28T19:58:30;4.13;;;3.75;;
56319;SDS011;42226;42.382;23.748;2023-07-28T20:00:57;3.75;;;3.45;;
56319;SDS011;42226;42.382;23.748;2023-07-28T20:03:23;4.05;;;3.75;;
56319;SDS011;42226;42.382;23.748;2023-07-28T20:05:50;4.90;;;3.67;;
56319;SDS011;42226;42.382;23.748;2023-07-28T20:08:17;4.10;;;3.80;;
56319;SDS011;42226;42.382;23.748;2023-07-28T20:10:43;4.15;;;3.85;;
56319;SDS011;42226;42.382;23.748;2023-07-28T20:13:10;3.63;;;3.42;;
56319;SDS011;42226;42.382;23.748;2023-07-28T20:15:37;5.28;;;3.42;;
56319;SDS011;42226;42.382;23.748;2023-07-28T20:18:04;5.25;;;3.40;;
56319;SDS011;42226;42.382;23.748;2023-07-28T20:20:31;5.15;;;3.75;;
56319;SDS011;42226;42.382;23.748;2023-07-28T20:22:58;4.07;;;3.45;;
56319;SDS011;42226;42.382;23.748;2023-07-28T20:25:24;3.75;;;3.45;;
56319;SDS011;42226;42.382;23.748;2023-07-28T20:27:52;3.65;;;3.45;;
56319;SDS011;42226;42.382;23.748;2023-07-28T20:30:18;4.82;;;3.65;;
56319;SDS011;42226;42.382;23.748;2023-07-28T20:32:45;3.80;;;3.60;;
56319;SDS011;42226;42.382;23.748;2023-07-28T20:35:12;3.50;;;3.20;;
56319;SDS011;42226;42.382;23.748;2023-07-28T20:37:38;3.95;;;3.65;;
56319;SDS011;42226;42.382;23.748;2023-07-28T20:40:05;4.00;;;3.70;;
56319;SDS011;42226;42.382;23.748;2023-07-28T20:42:33;4.57;;;3.95;;
56319;SDS011;42226;42.382;23.748;2023-07-28T20:45:00;4.05;;;3.80;;
56319;SDS011;42226;42.382;23.748;2023-07-28T20:47:27;4.15;;;3.85;;
56319;SDS011;42226;42.382;23.748;2023-07-28T20:49:54;4.25;;;3.90;;
56319;SDS011;42226;42.382;23.748;2023-07-28T20:52:21;5.13;;;4.40;;
56319;SDS011;42226;42.382;23.748;2023-07-28T20:54:48;5.68;;;4.40;;
56319;SDS011;42226;42.382;23.748;2023-07-28T20:57:15;4.18;;;3.80;;
56319;SDS011;42226;42.382;23.748;2023-07-28T20:59:42;4.30;;;3.90;;
56319;SDS011;42226;42.382;23.748;2023-07-28T21:02:09;6.82;;;3.80;;
56319;SDS011;42226;42.382;23.748;2023-07-28T21:04:36;4.40;;;4.10;;
56319;SDS011;42226;42.382;23.748;2023-07-28T21:07:03;3.90;;;3.60;;
56319;SDS011;42226;42.382;23.748;2023-07-28T21:09:32;4.55;;;3.80;;
56319;SDS011;42226;42.382;23.748;2023-07-28T21:12:00;5.72;;;3.83;;
56319;SDS011;42226;42.382;23.748;2023-07-28T21:14:27;4.00;;;3.70;;
56319;SDS011;42226;42.382;23.748;2023-07-28T21:16:54;4.80;;;4.00;;
56319;SDS011;42226;42.382;23.748;2023-07-28T21:19:20;3.85;;;3.55;;
56319;SDS011;42226;42.382;23.748;2023-07-28T21:21:47;4.35;;;4.05;;
56319;SDS011;42226;42.382;23.748;2023-07-28T21:24:14;4.10;;;3.78;;
56319;SDS011;42226;42.382;23.748;2023-07-28T21:26:40;4.60;;;4.20;;
56319;SDS011;42226;42.382;23.748;2023-07-28T21:29:07;7.00;;;3.67;;
56319;SDS011;42226;42.382;23.748;2023-07-28T21:31:34;4.20;;;3.90;;
56319;SDS011;42226;42.382;23.748;2023-07-28T21:34:01;4.25;;;3.95;;
56319;SDS011;42226;42.382;23.748;2023-07-28T21:36:28;4.47;;;4.07;;
56319;SDS011;42226;42.382;23.748;2023-07-28T21:38:55;4.07;;;3.78;;
56319;SDS011;42226;42.382;23.748;2023-07-28T21:41:21;4.55;;;4.15;;
56319;SDS011;42226;42.382;23.748;2023-07-28T21:43:48;3.90;;;3.65;;
56319;SDS011;42226;42.382;23.748;2023-07-28T21:46:17;4.70;;;3.85;;
56319;SDS011;42226;42.382;23.748;2023-07-28T21:48:45;4.38;;;4.05;;
56319;SDS011;42226;42.382;23.748;2023-07-28T21:51:11;4.32;;;4.03;;
56319;SDS011;42226;42.382;23.748;2023-07-28T21:53:38;5.30;;;4.00;;
56319;SDS011;42226;42.382;23.748;2023-07-28T21:56:05;6.88;;;3.80;;
56319;SDS011;42226;42.382;23.748;2023-07-28T21:58:32;6.72;;;4.30;;
56319;SDS011;42226;42.382;23.748;2023-07-28T22:00:59;5.38;;;4.18;;
56319;SDS011;42226;42.382;23.748;2023-07-28T22:03:28;4.40;;;4.10;;
56319;SDS011;42226;42.382;23.748;2023-07-28T22:05:55;4.40;;;4.00;;
56319;SDS011;42226;42.382;23.748;2023-07-28T22:08:22;4.10;;;3.70;;
56319;SDS011;42226;42.382;23.748;2023-07-28T22:10:51;4.20;;;3.90;;
56319;SDS011;42226;42.382;23.748;2023-07-28T22:13:18;3.92;;;3.63;;
56319;SDS011;42226;42.382;23.748;2023-07-28T22:15:46;4.43;;;4.05;;
56319;SDS011;42226;42.382;23.748;2023-07-28T22:18:14;4.00;;;3.70;;
56319;SDS011;42226;42.382;23.748;2023-07-28T22:20:41;4.40;;;4.00;;
56319;SDS011;42226;42.382;23.748;2023-07-28T22:23:09;4.15;;;3.85;;
56319;SDS011;42226;42.382;23.748;2023-07-28T22:25:43;4.47;;;4.07;;
56319;SDS011;42226;42.382;23.748;2023-07-28T22:28:12;4.70;;;4.32;;
56319;SDS011;42226;42.382;23.748;2023-07-28T22:30:39;4.47;;;4.07;;
56319;SDS011;42226;42.382;23.748;2023-07-28T22:33:07;4.50;;;4.20;;
56319;SDS011;42226;42.382;23.748;2023-07-28T22:35:35;4.60;;;4.20;;
56319;SDS011;42226;42.382;23.748;2023-07-28T22:38:01;4.35;;;4.05;;
56319;SDS011;42226;42.382;23.748;2023-07-28T22:40:28;4.22;;;3.92;;
56319;SDS011;42226;42.382;23.748;2023-07-28T22:42:55;4.50;;;3.55;;
56319;SDS011;42226;42.382;23.748;2023-07-28T22:45:22;4.35;;;4.05;;
56319;SDS011;42226;42.382;23.748;2023-07-28T22:47:49;4.25;;;3.95;;
56319;SDS011;42226;42.382;23.748;2023-07-28T22:50:16;7.80;;;4.20;;
56319;SDS011;42226;42.382;23.748;2023-07-28T22:52:42;6.07;;;3.78;;
56319;SDS011;42226;42.382;23.748;2023-07-28T22:55:09;4.70;;;4.30;;
56319;SDS011;42226;42.382;23.748;2023-07-28T22:57:39;5.55;;;4.10;;
56319;SDS011;42226;42.382;23.748;2023-07-28T23:00:06;4.03;;;3.72;;
56319;SDS011;42226;42.382;23.748;2023-07-28T23:02:38;4.53;;;3.83;;
56319;SDS011;42226;42.382;23.748;2023-07-28T23:05:05;6.63;;;4.05;;
56319;SDS011;42226;42.382;23.748;2023-07-28T23:07:35;6.78;;;4.18;;
56319;SDS011;42226;42.382;23.748;2023-07-28T23:10:02;8.25;;;4.38;;
56319;SDS011;42226;42.382;23.748;2023-07-28T23:12:32;4.43;;;4.10;;
56319;SDS011;42226;42.382;23.748;2023-07-28T23:14:58;7.10;;;3.78;;
56319;SDS011;42226;42.382;23.748;2023-07-28T23:17:26;6.15;;;3.85;;
56319;SDS011;42226;42.382;23.748;2023-07-28T23:19:54;8.20;;;3.97;;
56319;SDS011;42226;42.382;23.748;2023-07-28T23:22:21;5.50;;;3.65;;
56319;SDS011;42226;42.382;23.748;2023-07-28T23:24:49;4.55;;;4.10;;
56319;SDS011;42226;42.382;23.748;2023-07-28T23:27:17;3.80;;;3.50;;
56319;SDS011;42226;42.382;23.748;2023-07-28T23:29:47;4.65;;;3.58;;
56319;SDS011;42226;42.382;23.748;2023-07-28T23:32:15;4.30;;;3.97;;
56319;SDS011;42226;42.382;23.748;2023-07-28T23:34:45;3.92;;;3.63;;
56319;SDS011;42226;42.382;23.748;2023-07-28T23:37:11;3.78;;;3.47;;
56319;SDS011;42226;42.382;23.748;2023-07-28T23:39:38;3.92;;;3.65;;
56319;SDS011;42226;42.382;23.748;2023-07-28T23:42:05;5.32;;;3.78;;
56319;SDS011;42226;42.382;23.748;2023-07-28T23:44:33;4.10;;;3.80;;
56319;SDS011;42226;42.382;23.748;2023-07-28T23:47:00;4.40;;;3.85;;
56319;SDS011;42226;42.382;23.748;2023-07-28T23:49:28;4.00;;;3.70;;
56319;SDS011;42226;42.382;23.748;2023-07-28T23:51:54;4.13;;;3.83;;
56319;SDS011;42226;42.382;23.748;2023-07-28T23:54:21;4.28;;;3.97;;
56319;SDS011;42226;42.382;23.748;2023-07-28T23:56:49;4.82;;;3.72;;
56319;SDS011;42226;42.382;23.748;2023-07-28T23:59:16;3.83;;;3.63;;
